createdAt,value
2023-01-18T00:00:40.353Z,11.00
2023-01-18T00:03:12.995Z,8.82
2023-01-18T00:05:43.817Z,9.48
2023-01-18T00:08:13.794Z,9.07
2023-01-18T00:10:42.766Z,9.68
2023-01-18T00:13:10.961Z,8.50
2023-01-18T00:15:39.725Z,6.97
2023-01-18T00:18:07.665Z,10.32
2023-01-18T00:20:36.244Z,9.48
2023-01-18T00:23:05.506Z,8.38
2023-01-18T00:25:33.427Z,10.40
2023-01-18T00:28:01.322Z,11.50
2023-01-18T00:30:29.726Z,8.98
2023-01-18T00:32:59.442Z,10.57
2023-01-18T00:35:27.748Z,10.15
2023-01-18T00:37:55.680Z,10.02
2023-01-18T00:40:25.858Z,10.02
2023-01-18T00:43:11.295Z,9.95
2023-01-18T00:45:40.934Z,12.95
2023-01-18T00:48:12.119Z,12.45
2023-01-18T00:50:40.043Z,12.50
2023-01-18T00:53:08.051Z,10.45
2023-01-18T00:55:37.441Z,9.98
2023-01-18T00:58:05.401Z,7.78
2023-01-18T01:00:33.762Z,11.50
2023-01-18T01:03:01.977Z,8.90
2023-01-18T01:05:47.334Z,11.63
2023-01-18T01:08:17.762Z,10.65
2023-01-18T01:10:48.626Z,7.00
2023-01-18T01:13:35.952Z,8.95
2023-01-18T01:16:24.684Z,7.68
2023-01-18T01:19:10.816Z,6.90
2023-01-18T01:21:57.118Z,4.30
2023-01-18T01:24:43.276Z,6.18
2023-01-18T01:27:13.733Z,4.85
2023-01-18T01:29:41.740Z,4.05
2023-01-18T01:32:09.904Z,4.10
2023-01-18T01:34:37.847Z,6.05
2023-01-18T01:37:06.460Z,3.03
2023-01-18T01:39:34.388Z,1.70
2023-01-18T01:42:02.436Z,3.15
2023-01-18T01:44:51.262Z,2.25
2023-01-18T01:47:27.821Z,2.25
2023-01-18T01:49:59.212Z,1.80
2023-01-18T01:52:30.774Z,3.15
2023-01-18T01:55:02.092Z,2.10
2023-01-18T01:57:32.488Z,2.58
2023-01-18T02:00:05.233Z,2.67
2023-01-18T02:02:41.634Z,2.58
2023-01-18T02:05:13.490Z,1.98
2023-01-18T02:07:41.674Z,3.97
2023-01-18T02:10:10.592Z,3.00
2023-01-18T02:12:41.102Z,4.30
2023-01-18T02:15:11.676Z,2.70
2023-01-18T02:17:56.666Z,3.70
2023-01-18T02:20:44.471Z,2.97
2023-01-18T02:23:44.645Z,1.92
2023-01-18T02:26:50.229Z,1.05
2023-01-18T02:29:25.249Z,1.95
2023-01-18T02:32:11.194Z,2.25
2023-01-18T02:34:42.232Z,1.33
2023-01-18T02:37:17.765Z,1.35
2023-01-18T02:39:53.416Z,1.83
2023-01-18T02:42:40.999Z,1.08
2023-01-18T02:45:35.804Z,1.27
2023-01-18T02:48:04.960Z,1.90
2023-01-18T02:50:32.898Z,1.00
2023-01-18T02:53:01.068Z,1.42
2023-01-18T02:55:44.926Z,0.60
2023-01-18T02:58:18.140Z,0.90
2023-01-18T03:00:53.940Z,0.85
2023-01-18T03:03:23.966Z,1.20
2023-01-18T03:05:54.521Z,1.27
2023-01-18T03:08:26.139Z,0.50
2023-01-18T03:11:01.045Z,0.80
2023-01-18T03:13:54.738Z,0.70
2023-01-18T03:16:27.754Z,1.17
2023-01-18T03:19:01.477Z,0.90
2023-01-18T03:21:42.657Z,0.70
2023-01-18T03:24:11.450Z,1.85
2023-01-18T03:26:43.295Z,0.68
2023-01-18T03:29:31.489Z,1.00
2023-01-18T03:32:23.023Z,0.85
2023-01-18T03:34:55.709Z,0.70
2023-01-18T03:37:29.074Z,1.02
2023-01-18T03:40:01.677Z,1.15
2023-01-18T03:42:33.274Z,2.60
2023-01-18T03:45:09.598Z,3.90
2023-01-18T03:47:39.191Z,4.45
2023-01-18T03:50:07.651Z,1.95
2023-01-18T03:52:41.781Z,4.10
2023-01-18T03:55:16.985Z,2.95
2023-01-18T03:57:50.104Z,0.80
2023-01-18T04:00:19.292Z,0.77
2023-01-18T04:02:50.357Z,0.50
2023-01-18T04:05:19.110Z,0.68
2023-01-18T04:07:47.049Z,2.35
2023-01-18T04:10:15.057Z,0.65
2023-01-18T04:12:43.020Z,0.75
2023-01-18T04:15:11.846Z,0.68
2023-01-18T04:17:40.151Z,1.13
2023-01-18T04:20:10.983Z,0.60
2023-01-18T04:22:38.926Z,1.80
2023-01-18T04:25:07.695Z,1.40
2023-01-18T04:27:35.615Z,0.93
2023-01-18T04:30:06.208Z,1.30
2023-01-18T04:32:34.564Z,0.85
2023-01-18T04:35:02.512Z,0.90
2023-01-18T04:37:33.983Z,0.73
2023-01-18T04:40:05.324Z,0.98
2023-01-18T04:42:33.421Z,1.52
2023-01-18T04:45:01.581Z,1.30
2023-01-18T04:47:29.950Z,2.08
2023-01-18T04:49:58.352Z,2.67
2023-01-18T04:52:27.096Z,1.73
2023-01-18T04:54:56.406Z,3.33
2023-01-18T04:57:24.375Z,2.75
2023-01-18T04:59:52.473Z,3.25
2023-01-18T05:02:20.450Z,1.80
2023-01-18T05:04:48.428Z,3.00
2023-01-18T05:07:16.465Z,2.25
2023-01-18T05:09:46.659Z,4.18
2023-01-18T05:12:17.862Z,2.35
2023-01-18T05:14:45.783Z,5.60
2023-01-18T05:17:13.773Z,2.70
2023-01-18T05:19:42.046Z,2.38
2023-01-18T05:22:09.945Z,1.85
2023-01-18T05:24:37.863Z,2.28
2023-01-18T05:27:05.979Z,3.58
2023-01-18T05:29:35.440Z,2.83
2023-01-18T05:32:03.343Z,1.98
2023-01-18T05:34:31.284Z,1.75
2023-01-18T05:36:59.899Z,1.63
2023-01-18T05:39:27.775Z,3.03
2023-01-18T05:41:55.805Z,2.50
2023-01-18T05:44:23.825Z,2.22
2023-01-18T05:46:53.131Z,2.17
2023-01-18T05:49:21.199Z,2.03
2023-01-18T05:51:49.160Z,3.08
2023-01-18T05:54:17.114Z,2.42
2023-01-18T05:56:45.029Z,2.60
2023-01-18T05:59:14.455Z,1.80
2023-01-18T06:01:43.449Z,2.15
2023-01-18T06:04:12.756Z,3.83
2023-01-18T06:06:40.708Z,3.47
2023-01-18T06:09:08.816Z,2.97
2023-01-18T06:11:36.792Z,3.58
2023-01-18T06:14:04.730Z,3.58
2023-01-18T06:16:32.714Z,3.10
2023-01-18T06:19:00.634Z,6.15
2023-01-18T06:21:32.218Z,4.03
2023-01-18T06:24:00.193Z,3.33
2023-01-18T06:26:30.532Z,2.78
2023-01-18T06:28:58.674Z,2.28
2023-01-18T06:31:26.603Z,2.28
2023-01-18T06:33:54.612Z,2.90
2023-01-18T06:36:22.602Z,4.35
2023-01-18T06:38:51.887Z,4.05
2023-01-18T06:41:19.830Z,2.70
2023-01-18T06:43:47.730Z,3.88
2023-01-18T06:46:15.875Z,2.70
2023-01-18T06:48:43.816Z,2.92
2023-01-18T06:51:12.430Z,2.47
2023-01-18T06:53:40.722Z,3.65
2023-01-18T06:56:11.749Z,2.38
2023-01-18T06:58:39.738Z,5.57
2023-01-18T07:01:08.520Z,4.82
2023-01-18T07:03:36.542Z,3.17
2023-01-18T07:06:06.260Z,3.55
2023-01-18T07:08:36.433Z,4.28
2023-01-18T07:11:10.784Z,2.63
2023-01-18T07:13:40.199Z,2.13
2023-01-18T07:16:09.398Z,2.17
2023-01-18T07:18:37.371Z,3.15
2023-01-18T07:21:07.959Z,5.72
2023-01-18T07:23:37.302Z,7.43
2023-01-18T07:26:07.112Z,7.50
2023-01-18T07:28:37.478Z,4.70
2023-01-18T07:31:07.963Z,5.53
2023-01-18T07:33:38.944Z,5.57
2023-01-18T07:36:09.583Z,6.78
2023-01-18T07:38:38.592Z,11.95
2023-01-18T07:41:09.144Z,10.93
2023-01-18T07:43:38.972Z,8.95
2023-01-18T07:46:09.357Z,8.90
2023-01-18T07:48:38.997Z,6.68
2023-01-18T07:51:09.313Z,8.70
2023-01-18T07:53:38.959Z,8.10
2023-01-18T07:56:11.948Z,6.88
2023-01-18T07:58:44.203Z,4.63
2023-01-18T08:01:15.128Z,5.78
2023-01-18T08:03:44.063Z,3.50
2023-01-18T08:06:18.855Z,5.75
2023-01-18T08:08:46.882Z,7.82
2023-01-18T08:11:15.031Z,7.72
2023-01-18T08:13:44.328Z,9.73
2023-01-18T08:16:13.293Z,9.13
2023-01-18T08:18:41.635Z,9.48
2023-01-18T08:21:11.626Z,9.48
2023-01-18T08:23:40.184Z,6.30
2023-01-18T08:26:10.003Z,6.13
2023-01-18T08:28:38.243Z,7.05
2023-01-18T08:31:11.271Z,7.88
2023-01-18T08:33:41.070Z,6.70
2023-01-18T08:36:14.118Z,7.78
2023-01-18T08:38:47.907Z,8.88
2023-01-18T08:41:15.850Z,5.20
2023-01-18T08:43:44.122Z,7.22
2023-01-18T08:46:13.407Z,7.47
2023-01-18T08:48:41.893Z,3.95
2023-01-18T08:51:09.811Z,7.07
2023-01-18T08:53:37.736Z,9.52
2023-01-18T08:56:06.752Z,10.00
2023-01-18T08:58:34.987Z,10.38
2023-01-18T09:01:06.004Z,7.07
2023-01-18T09:03:36.194Z,8.55
2023-01-18T09:06:06.064Z,8.20
2023-01-18T09:08:33.980Z,8.40
2023-01-18T09:11:03.414Z,7.47
2023-01-18T09:13:31.377Z,7.03
2023-01-18T09:16:00.934Z,5.53
2023-01-18T09:18:29.995Z,9.68
2023-01-18T09:20:59.782Z,5.90
2023-01-18T09:23:27.792Z,5.00
2023-01-18T09:26:03.040Z,6.65
2023-01-18T09:28:31.191Z,4.70
2023-01-18T09:31:01.619Z,6.47
2023-01-18T09:33:37.530Z,6.57
2023-01-18T09:36:10.369Z,6.78
2023-01-18T09:38:39.527Z,5.03
2023-01-18T09:41:18.961Z,5.93
2023-01-18T09:43:51.084Z,7.03
2023-01-18T09:46:21.056Z,6.38
2023-01-18T09:48:54.809Z,8.05
2023-01-18T09:51:27.985Z,7.30
2023-01-18T09:54:11.764Z,7.57
2023-01-18T09:56:45.730Z,7.40
2023-01-18T09:59:22.308Z,5.95
2023-01-18T10:01:53.811Z,8.23
2023-01-18T10:04:30.035Z,8.20
2023-01-18T10:07:02.057Z,11.15
2023-01-18T10:09:39.841Z,7.15
2023-01-18T10:12:21.799Z,9.70
2023-01-18T10:14:54.249Z,10.13
2023-01-18T10:17:24.985Z,13.07
2023-01-18T10:19:53.150Z,10.20
2023-01-18T10:22:28.072Z,11.07
2023-01-18T10:25:03.398Z,10.65
2023-01-18T10:27:53.571Z,9.05
2023-01-18T10:30:56.675Z,8.15
2023-01-18T10:33:26.906Z,9.02
2023-01-18T10:36:03.195Z,7.65
2023-01-18T10:38:33.159Z,13.10
2023-01-18T10:41:02.777Z,5.82
2023-01-18T10:43:32.772Z,10.88
2023-01-18T10:46:00.905Z,7.75
2023-01-18T10:48:31.519Z,8.50
2023-01-18T10:51:01.058Z,10.00
2023-01-18T10:53:33.025Z,6.50
2023-01-18T10:56:04.743Z,9.35
2023-01-18T10:58:38.539Z,7.18
2023-01-18T11:01:06.934Z,5.63
2023-01-18T11:03:46.328Z,7.07
2023-01-18T11:06:16.994Z,8.45
2023-01-18T11:08:46.298Z,7.20
2023-01-18T11:11:20.096Z,6.50
2023-01-18T11:13:49.159Z,8.43
2023-01-18T11:16:21.835Z,6.13
2023-01-18T11:18:59.336Z,8.00
2023-01-18T11:21:31.565Z,11.75
2023-01-18T11:24:07.629Z,7.00
2023-01-18T11:26:35.787Z,8.60
2023-01-18T11:29:06.856Z,12.25
2023-01-18T11:31:46.215Z,7.28
2023-01-18T11:34:25.993Z,7.80
2023-01-18T11:36:54.066Z,9.60
2023-01-18T11:39:32.392Z,12.77
2023-01-18T11:42:21.535Z,9.88
2023-01-18T11:44:58.496Z,7.65
2023-01-18T11:47:32.352Z,3.40
2023-01-18T11:50:21.069Z,6.18
2023-01-18T11:52:53.028Z,9.05
2023-01-18T11:55:31.253Z,7.82
2023-01-18T11:58:00.808Z,14.02
2023-01-18T12:00:33.129Z,11.27
2023-01-18T12:03:27.398Z,6.47
2023-01-18T12:06:03.745Z,19.70
2023-01-18T12:08:54.901Z,11.98
2023-01-18T12:11:45.832Z,12.43
2023-01-18T12:14:29.464Z,9.40
2023-01-18T12:17:20.711Z,15.20
2023-01-18T12:20:00.460Z,11.02
2023-01-18T12:22:55.537Z,2.53
2023-01-18T12:25:47.026Z,10.13
2023-01-18T12:28:33.084Z,10.40
2023-01-18T12:31:15.870Z,8.65
2023-01-18T12:33:53.542Z,10.50
2023-01-18T12:36:41.237Z,13.55
2023-01-18T12:39:23.078Z,7.32
2023-01-18T12:41:58.355Z,13.38
2023-01-18T12:44:49.122Z,14.30
2023-01-18T12:47:36.045Z,10.80
2023-01-18T12:50:08.968Z,13.75
2023-01-18T12:52:43.847Z,7.90
2023-01-18T12:55:20.979Z,9.77
2023-01-18T12:57:52.196Z,13.07
2023-01-18T13:00:26.276Z,9.02
2023-01-18T13:02:57.959Z,2.75
2023-01-18T13:05:35.160Z,11.00
2023-01-18T13:08:09.102Z,9.55
2023-01-18T13:10:40.564Z,13.82
2023-01-18T13:13:13.101Z,9.15
2023-01-18T13:15:48.978Z,15.77
2023-01-18T13:18:24.137Z,14.60
2023-01-18T13:21:13.982Z,15.65
2023-01-18T13:23:53.667Z,16.35
2023-01-18T13:26:25.598Z,12.07
2023-01-18T13:29:25.710Z,22.23
2023-01-18T13:31:55.791Z,18.02
2023-01-18T13:34:29.810Z,16.83
2023-01-18T13:37:13.517Z,8.55
2023-01-18T13:39:47.102Z,10.23
2023-01-18T13:42:26.844Z,10.50
2023-01-18T13:45:18.246Z,14.38
2023-01-18T13:47:54.030Z,13.55
2023-01-18T13:50:42.264Z,12.10
2023-01-18T13:53:24.685Z,13.43
2023-01-18T13:56:29.353Z,12.20
2023-01-18T13:59:04.168Z,11.77
2023-01-18T14:01:36.296Z,16.33
2023-01-18T14:04:25.223Z,10.88
2023-01-18T14:06:54.698Z,16.00
2023-01-18T14:09:39.745Z,17.15
2023-01-18T14:12:08.524Z,12.60
2023-01-18T14:14:55.677Z,16.80
2023-01-18T14:17:25.610Z,16.45
2023-01-18T14:20:26.018Z,15.38
2023-01-18T14:23:07.890Z,14.75
2023-01-18T14:25:57.760Z,14.15
2023-01-18T14:28:31.574Z,14.13
2023-01-18T14:31:01.706Z,12.98
2023-01-18T14:33:34.629Z,12.63
2023-01-18T14:36:06.859Z,13.48
2023-01-18T14:38:34.893Z,14.00
2023-01-18T14:41:07.331Z,18.40
2023-01-18T14:43:42.630Z,16.02
2023-01-18T14:46:15.997Z,15.80
2023-01-18T14:48:51.430Z,14.32
2023-01-18T14:51:23.675Z,15.95
2023-01-18T14:53:54.582Z,15.85
2023-01-18T14:56:24.714Z,17.10
2023-01-18T14:58:54.825Z,14.48
2023-01-18T15:01:32.484Z,17.90
2023-01-18T15:04:02.346Z,15.45
2023-01-18T15:06:40.306Z,14.40
2023-01-18T15:09:09.996Z,17.75
2023-01-18T15:11:39.751Z,14.00
2023-01-18T15:14:11.317Z,18.40
2023-01-18T15:16:40.142Z,13.65
2023-01-18T15:19:14.567Z,17.25
2023-01-18T15:21:46.080Z,11.70
2023-01-18T15:24:18.431Z,13.60
2023-01-18T15:26:51.613Z,13.65
2023-01-18T15:29:21.296Z,17.00
2023-01-18T15:31:53.311Z,17.02
2023-01-18T15:34:28.246Z,13.10
2023-01-18T15:37:00.256Z,17.27
2023-01-18T15:39:28.263Z,11.80
2023-01-18T15:41:58.382Z,14.27
2023-01-18T15:44:40.710Z,15.63
2023-01-18T15:47:16.785Z,14.63
2023-01-18T15:49:46.774Z,16.45
2023-01-18T15:52:16.557Z,13.55
2023-01-18T15:54:44.618Z,11.95
2023-01-18T15:57:15.160Z,15.90
2023-01-18T15:59:43.722Z,12.15
2023-01-18T16:02:22.758Z,9.48
2023-01-18T16:05:08.157Z,12.18
2023-01-18T16:08:15.892Z,11.40
2023-01-18T16:10:50.706Z,15.38
2023-01-18T16:13:37.227Z,9.85
2023-01-18T16:16:17.134Z,10.13
2023-01-18T16:18:47.340Z,13.23
2023-01-18T16:21:32.647Z,13.02
2023-01-18T16:24:01.983Z,20.05
2023-01-18T16:26:31.486Z,25.50
2023-01-18T16:29:07.358Z,23.80
2023-01-18T16:31:36.509Z,29.90
2023-01-18T16:34:22.090Z,32.83
2023-01-18T16:36:51.364Z,36.47
2023-01-18T16:39:23.225Z,35.20
2023-01-18T16:41:57.904Z,34.60
2023-01-18T16:44:27.582Z,27.30
2023-01-18T16:46:55.898Z,29.50
2023-01-18T16:49:23.868Z,27.00
2023-01-18T16:51:51.842Z,23.73
2023-01-18T16:54:21.482Z,25.80
2023-01-18T16:56:50.152Z,21.42
2023-01-18T16:59:19.651Z,24.02
2023-01-18T17:01:47.809Z,17.20
2023-01-18T17:04:16.452Z,20.00
2023-01-18T17:06:45.312Z,16.00
2023-01-18T17:09:22.277Z,20.58
2023-01-18T17:11:51.311Z,22.42
2023-01-18T17:14:20.153Z,22.60
2023-01-18T17:16:49.674Z,40.33
2023-01-18T17:19:22.721Z,50.08
2023-01-18T17:21:51.911Z,31.20
2023-01-18T17:24:22.066Z,30.02
2023-01-18T17:26:50.573Z,27.80
2023-01-18T17:29:21.240Z,53.53
2023-01-18T17:31:52.503Z,48.28
2023-01-18T17:34:27.764Z,31.10
2023-01-18T17:36:58.824Z,30.00
2023-01-18T17:39:42.493Z,38.42
2023-01-18T17:42:16.407Z,47.50
2023-01-18T17:44:46.828Z,39.95
2023-01-18T17:47:15.565Z,34.90
2023-01-18T17:49:43.511Z,31.88
2023-01-18T17:52:11.893Z,34.95
2023-01-18T17:54:41.130Z,29.60
2023-01-18T17:57:09.134Z,31.33
2023-01-18T17:59:37.436Z,36.35
2023-01-18T18:02:05.409Z,23.30
2023-01-18T18:04:33.474Z,18.38
2023-01-18T18:07:01.446Z,19.38
2023-01-18T18:09:29.406Z,17.23
2023-01-18T18:11:58.690Z,23.58
2023-01-18T18:14:27.017Z,16.38
2023-01-18T18:16:54.973Z,22.52
2023-01-18T18:19:25.337Z,31.80
2023-01-18T18:21:55.426Z,27.95
2023-01-18T18:24:23.402Z,24.55
2023-01-18T18:26:51.519Z,21.92
2023-01-18T18:29:20.960Z,18.02
2023-01-18T18:31:48.913Z,18.55
2023-01-18T18:34:17.596Z,21.35
2023-01-18T18:36:45.542Z,15.70
2023-01-18T18:39:13.453Z,16.70
2023-01-18T18:41:43.875Z,14.77
2023-01-18T18:44:11.875Z,16.98
2023-01-18T18:46:41.258Z,18.73
2023-01-18T18:49:09.472Z,14.20
2023-01-18T18:51:37.459Z,13.63
2023-01-18T18:54:05.747Z,13.73
2023-01-18T18:56:34.046Z,13.57
2023-01-18T18:59:01.997Z,13.40
2023-01-18T19:01:30.655Z,14.13
2023-01-18T19:04:03.231Z,16.63
2023-01-18T19:06:31.219Z,19.77
2023-01-18T19:08:59.166Z,16.02
2023-01-18T19:11:27.251Z,13.05
2023-01-18T19:13:56.627Z,16.35
2023-01-18T19:16:24.870Z,17.38
2023-01-18T19:18:52.826Z,21.27
2023-01-18T19:21:22.107Z,12.70
2023-01-18T19:23:50.355Z,17.05
2023-01-18T19:26:18.912Z,18.80
2023-01-18T19:28:47.459Z,12.13
2023-01-18T19:31:15.627Z,16.05
2023-01-18T19:33:43.600Z,21.65
2023-01-18T19:36:14.152Z,17.70
2023-01-18T19:38:48.019Z,18.60
2023-01-18T19:41:20.202Z,14.98
2023-01-18T19:43:51.684Z,15.05
2023-01-18T19:46:20.184Z,17.88
2023-01-18T19:48:48.215Z,16.20
2023-01-18T19:51:22.271Z,17.88
2023-01-18T19:53:53.602Z,15.52
2023-01-18T19:56:21.630Z,15.20
2023-01-18T19:58:52.132Z,16.15
2023-01-18T20:01:35.129Z,14.40
2023-01-18T20:04:04.331Z,15.45
2023-01-18T20:06:32.291Z,22.40
2023-01-18T20:09:01.874Z,26.13
2023-01-18T20:11:30.714Z,25.75
2023-01-18T20:13:58.628Z,24.33
2023-01-18T20:16:26.660Z,24.45
2023-01-18T20:18:54.787Z,24.98
2023-01-18T20:21:22.714Z,27.73
2023-01-18T20:23:51.012Z,18.20
2023-01-18T20:26:34.892Z,18.55
2023-01-18T20:29:06.268Z,18.20
2023-01-18T20:31:35.854Z,19.02
2023-01-18T20:34:04.653Z,12.60
2023-01-18T20:36:34.666Z,18.50
2023-01-18T20:39:02.619Z,14.10
2023-01-18T20:41:31.975Z,24.58
2023-01-18T20:44:00.313Z,19.90
2023-01-18T20:46:28.352Z,24.92
2023-01-18T20:48:59.237Z,20.45
2023-01-18T20:51:27.272Z,27.40
2023-01-18T20:53:55.226Z,17.77
2023-01-18T20:56:29.174Z,22.95
2023-01-18T20:58:59.286Z,23.08
2023-01-18T21:01:32.034Z,20.45
2023-01-18T21:04:02.060Z,16.10
2023-01-18T21:06:30.324Z,26.52
2023-01-18T21:08:59.764Z,29.65
2023-01-18T21:11:28.306Z,16.25
2023-01-18T21:13:59.838Z,18.65
2023-01-18T21:16:28.514Z,26.50
2023-01-18T21:18:58.814Z,17.88
2023-01-18T21:21:29.243Z,19.70
2023-01-18T21:23:57.554Z,22.58
2023-01-18T21:26:25.502Z,23.33
2023-01-18T21:28:53.407Z,23.95
2023-01-18T21:31:23.004Z,21.75
2023-01-18T21:33:50.940Z,16.98
2023-01-18T21:36:20.027Z,21.30
2023-01-18T21:38:47.975Z,16.40
2023-01-18T21:41:33.926Z,23.17
2023-01-18T21:44:19.452Z,16.13
2023-01-18T21:46:53.618Z,23.63
2023-01-18T21:52:47.239Z,20.73
2023-01-18T21:55:16.569Z,17.50
2023-01-18T21:57:44.785Z,20.75
2023-01-18T22:00:13.708Z,19.95
2023-01-18T22:02:43.024Z,18.63
2023-01-18T22:05:13.036Z,19.23
2023-01-18T22:07:40.935Z,29.08
2023-01-18T22:10:10.114Z,24.77
2023-01-18T22:12:38.994Z,23.83
2023-01-18T22:15:07.872Z,21.88
2023-01-18T22:17:35.781Z,22.45
2023-01-18T22:20:05.700Z,18.65
2023-01-18T22:22:33.647Z,19.25
2023-01-18T22:25:02.197Z,17.90
2023-01-18T22:27:30.572Z,15.63
2023-01-18T22:30:00.430Z,17.40
2023-01-18T22:32:31.145Z,21.55
2023-01-18T22:34:59.281Z,19.77
2023-01-18T22:37:31.215Z,23.00
2023-01-18T22:39:59.122Z,54.75
2023-01-18T22:42:29.789Z,20.40
2023-01-18T22:44:57.947Z,22.90
2023-01-18T22:47:25.851Z,19.75
2023-01-18T22:49:54.042Z,20.27
2023-01-18T22:52:21.972Z,16.23
2023-01-18T22:54:54.365Z,15.52
2023-01-18T22:57:22.282Z,18.65
2023-01-18T22:59:50.229Z,14.48
2023-01-18T23:02:18.324Z,14.23
2023-01-18T23:04:50.965Z,12.13
2023-01-18T23:07:18.922Z,10.60
2023-01-18T23:09:46.848Z,22.52
2023-01-18T23:12:16.171Z,13.95
2023-01-18T23:15:01.757Z,11.90
2023-01-18T23:17:44.921Z,16.60
2023-01-18T23:20:14.846Z,13.52
2023-01-18T23:22:44.601Z,16.23
2023-01-18T23:25:12.574Z,11.27
2023-01-18T23:27:42.000Z,14.88
2023-01-18T23:30:11.531Z,11.18
2023-01-18T23:32:39.496Z,14.82
2023-01-18T23:35:08.532Z,12.32
2023-01-18T23:37:38.255Z,15.38
2023-01-18T23:40:25.298Z,21.35
2023-01-18T23:43:12.968Z,12.13
2023-01-18T23:45:58.594Z,15.25
2023-01-18T23:48:44.241Z,12.20
2023-01-18T23:51:29.869Z,14.55
2023-01-18T23:54:16.857Z,13.88
2023-01-18T23:56:45.776Z,10.25
2023-01-18T23:59:15.048Z,13.38
